Time;durP1;ratioP1;P1;durP2;ratioP2;P2;SDS_P1;SDS_P2;PMS_P1;PMS_P2;Temp;Humidity;BMP_temperature;BMP_pressure;BME280_temperature;BME280_humidity;BME280_pressure;Samples;Min_cycle;Max_cycle;Signal;HPM_P1;HPM_P2
2023/09/28 00:03:09;;;;;;;9.57;5.75;;;9.00;99.90;;;;;;8376936;28;20102;-79
2023/09/28 00:07:10;;;;;;;7.78;6.10;;;9.10;99.90;;;;;;8396982;28;20013;-79
2023/09/28 00:11:10;;;;;;;8.52;6.25;;;9.20;99.90;;;;;;8379161;28;20078;-79
2023/09/28 00:15:11;;;;;;;11.93;7.05;;;9.20;99.90;;;;;;8378823;28;20032;-78
2023/09/28 00:19:12;;;;;;;10.80;6.78;;;9.10;99.90;;;;;;8378153;28;20039;-79
2023/09/28 00:23:13;;;;;;;9.95;6.85;;;9.10;99.90;;;;;;8378628;28;20055;-79
2023/09/28 00:27:13;;;;;;;10.23;6.55;;;9.00;99.90;;;;;;8396497;28;20024;-79
2023/09/28 00:31:14;;;;;;;8.43;6.15;;;8.90;99.90;;;;;;8378558;28;20550;-79
2023/09/28 00:35:15;;;;;;;9.65;6.90;;;8.80;99.90;;;;;;8378237;28;20054;-79
2023/09/28 00:39:16;;;;;;;11.65;7.57;;;8.60;99.90;;;;;;8373923;28;20033;-79
2023/09/28 00:43:25;;;;;;;11.02;7.88;;;8.60;99.90;;;;;;8373120;28;20047;-77
2023/09/28 00:47:26;;;;;;;12.77;7.95;;;8.70;99.90;;;;;;8375947;28;20091;-79
2023/09/28 00:51:28;;;;;;;12.18;8.18;;;8.60;99.90;;;;;;8394694;28;20020;-78
2023/09/28 00:55:30;;;;;;;12.50;8.13;;;8.50;99.90;;;;;;8375818;28;20020;-79
2023/09/28 00:59:31;;;;;;;11.35;7.65;;;8.50;99.90;;;;;;8377510;28;20480;-79
2023/09/28 01:03:34;;;;;;;10.55;7.80;;;8.50;99.90;;;;;;8372113;28;20023;-78
2023/09/28 01:07:35;;;;;;;11.10;6.88;;;8.60;99.90;;;;;;8395757;28;20021;-79
2023/09/28 01:11:36;;;;;;;11.20;7.47;;;8.50;99.90;;;;;;8376687;28;20128;-79
2023/09/28 01:15:41;;;;;;;12.18;8.20;;;8.50;99.90;;;;;;8377090;28;20078;-77
2023/09/28 01:19:43;;;;;;;12.18;8.10;;;8.60;99.90;;;;;;8376469;28;20035;-79
2023/09/28 01:23:45;;;;;;;13.68;8.98;;;8.80;99.90;;;;;;8372774;28;20519;-79
2023/09/28 01:27:46;;;;;;;13.00;8.23;;;8.90;99.90;;;;;;8377480;28;20024;-79
2023/09/28 01:31:48;;;;;;;12.43;8.45;;;8.70;99.90;;;;;;8372760;28;20056;-79
2023/09/28 01:35:48;;;;;;;12.68;8.35;;;8.70;99.90;;;;;;8395038;28;20016;-79
2023/09/28 01:39:49;;;;;;;11.70;7.82;;;8.60;99.90;;;;;;8395078;28;20052;-78
2023/09/28 01:43:49;;;;;;;12.68;8.60;;;8.60;99.90;;;;;;8373260;28;20047;-78
2023/09/28 01:47:50;;;;;;;12.75;7.88;;;8.60;99.90;;;;;;8375860;28;20106;-79
2023/09/28 01:51:53;;;;;;;11.68;7.68;;;8.50;99.90;;;;;;8373901;28;20508;-79
2023/09/28 01:55:53;;;;;;;12.95;8.25;;;8.20;99.90;;;;;;8377085;28;20021;-78
2023/09/28 01:59:54;;;;;;;12.95;8.13;;;8.30;99.90;;;;;;8373667;28;20766;-79
2023/09/28 02:03:54;;;;;;;13.05;8.23;;;8.30;99.90;;;;;;8369298;28;20036;-79
2023/09/28 02:07:55;;;;;;;19.13;9.90;;;8.30;99.90;;;;;;8377888;28;20028;-78
2023/09/28 02:11:56;;;;;;;15.63;9.98;;;8.40;99.90;;;;;;8395618;28;20073;-79
2023/09/28 02:15:57;;;;;;;14.20;9.93;;;8.60;99.90;;;;;;8394487;28;20581;-79
2023/09/28 02:19:57;;;;;;;15.50;9.80;;;8.70;99.90;;;;;;8376775;28;20040;-79
2023/09/28 02:24:01;;;;;;;14.35;9.82;;;8.80;99.90;;;;;;8374475;28;20020;-78
2023/09/28 02:28:01;;;;;;;16.50;9.82;;;8.90;99.90;;;;;;8376532;28;20036;-79
2023/09/28 02:32:02;;;;;;;15.32;9.10;;;8.80;99.90;;;;;;8376306;28;20071;-79
2023/09/28 02:36:03;;;;;;;13.90;9.10;;;8.70;99.90;;;;;;8378075;28;20738;-78
2023/09/28 02:40:07;;;;;;;14.27;8.18;;;8.70;99.90;;;;;;8375741;28;20028;-79
2023/09/28 02:44:07;;;;;;;13.27;8.75;;;8.70;99.90;;;;;;8377944;28;20048;-78
2023/09/28 02:48:08;;;;;;;13.45;7.88;;;8.50;99.90;;;;;;8386766;28;20032;-77
2023/09/28 02:52:10;;;;;;;12.82;8.27;;;8.40;99.90;;;;;;8383025;28;20032;-79
2023/09/28 02:56:12;;;;;;;11.80;8.27;;;8.30;99.90;;;;;;8392487;28;20017;-78
2023/09/28 03:04:16;;;;;;;10.90;7.32;;;8.30;99.90;;;;;;8392654;28;20027;-78
2023/09/28 03:08:17;;;;;;;9.50;7.07;;;8.40;99.90;;;;;;8390719;28;20024;-79
2023/09/28 03:12:18;;;;;;;11.50;8.00;;;8.40;99.90;;;;;;8366439;28;20028;-79
2023/09/28 03:16:19;;;;;;;13.32;8.02;;;8.30;99.90;;;;;;8391982;28;20027;-77
2023/09/28 03:20:21;;;;;;;10.45;7.38;;;8.30;99.90;;;;;;8392218;28;20043;-79
2023/09/28 03:24:22;;;;;;;11.13;7.78;;;8.30;99.90;;;;;;8380660;28;20021;-78
2023/09/28 03:28:22;;;;;;;12.25;8.30;;;8.30;99.90;;;;;;8382439;28;20059;-78
2023/09/28 03:32:23;;;;;;;11.95;8.55;;;8.30;99.90;;;;;;8380085;28;20027;-78
2023/09/28 03:36:24;;;;;;;14.23;8.82;;;8.40;99.90;;;;;;8398367;28;20032;-78
2023/09/28 03:40:34;;;;;;;15.02;8.80;;;8.40;99.90;;;;;;8379704;28;20021;-77
2023/09/28 03:44:35;;;;;;;12.05;8.38;;;8.50;99.90;;;;;;8369701;28;20437;-78
2023/09/28 03:48:35;;;;;;;11.90;8.35;;;8.50;99.90;;;;;;8383161;28;20116;-79
2023/09/28 03:52:37;;;;;;;18.35;9.38;;;8.40;99.90;;;;;;8392750;28;20028;-78
2023/09/28 03:56:37;;;;;;;12.40;8.75;;;8.40;99.90;;;;;;8372729;28;20028;-79
2023/09/28 04:00:38;;;;;;;14.65;9.93;;;8.40;99.90;;;;;;8378632;28;20181;-79
2023/09/28 04:04:39;;;;;;;18.63;11.98;;;8.50;99.90;;;;;;8378891;28;20035;-79
2023/09/28 04:08:39;;;;;;;17.23;10.50;;;8.70;99.90;;;;;;8396775;28;20028;-79
2023/09/28 04:12:40;;;;;;;17.05;10.43;;;8.90;99.90;;;;;;8379427;28;20115;-78
2023/09/28 04:16:41;;;;;;;16.20;10.77;;;9.00;99.90;;;;;;8395496;28;20530;-78
2023/09/28 04:20:42;;;;;;;14.85;9.90;;;8.90;99.90;;;;;;8370977;28;20054;-78
2023/09/28 04:24:45;;;;;;;16.20;9.68;;;8.90;99.90;;;;;;8386446;28;20073;-81
2023/09/28 04:28:46;;;;;;;15.70;9.98;;;8.80;99.90;;;;;;8402878;28;20032;-82
2023/09/28 04:32:46;;;;;;;13.98;9.40;;;8.80;99.90;;;;;;8376597;28;20028;-81
2023/09/28 04:36:47;;;;;;;13.20;9.20;;;8.80;99.90;;;;;;8380369;28;20036;-80
2023/09/28 04:40:47;;;;;;;17.42;9.63;;;8.80;99.90;;;;;;8376596;28;20024;-81
2023/09/28 04:44:49;;;;;;;13.98;9.35;;;8.70;99.90;;;;;;8379008;28;20052;-80
2023/09/28 04:48:49;;;;;;;12.35;8.10;;;8.60;99.90;;;;;;8399608;28;20024;-81
2023/09/28 04:52:50;;;;;;;14.95;9.25;;;8.60;99.90;;;;;;8377314;28;20025;-81
2023/09/28 04:56:51;;;;;;;13.05;8.50;;;8.50;99.90;;;;;;8376935;28;20120;-81
2023/09/28 05:00:52;;;;;;;14.57;9.05;;;8.50;99.90;;;;;;8380653;28;20652;-81
2023/09/28 05:04:52;;;;;;;16.33;10.82;;;8.50;99.90;;;;;;8399022;28;20103;-81
2023/09/28 05:08:53;;;;;;;17.58;10.85;;;8.60;99.90;;;;;;8398594;28;20381;-81
2023/09/28 05:12:53;;;;;;;15.77;9.23;;;8.70;99.90;;;;;;8377416;28;20031;-80
2023/09/28 05:16:54;;;;;;;14.82;9.68;;;8.80;99.90;;;;;;8380500;28;20474;-81
2023/09/28 05:20:55;;;;;;;12.88;10.18;;;8.80;99.90;;;;;;8398102;28;20082;-80
2023/09/28 05:24:56;;;;;;;15.15;9.77;;;8.90;99.90;;;;;;8377121;28;20043;-80
2023/09/28 05:28:57;;;;;;;15.43;10.75;;;9.00;99.90;;;;;;8376868;28;20040;-80
2023/09/28 05:32:57;;;;;;;16.63;11.00;;;9.00;99.90;;;;;;8397467;28;20035;-81
2023/09/28 05:36:58;;;;;;;18.30;11.05;;;9.10;99.90;;;;;;8397109;28;20392;-81
2023/09/28 05:40:59;;;;;;;17.17;10.65;;;9.20;99.90;;;;;;8399326;28;20036;-80
2023/09/28 05:45:00;;;;;;;16.05;9.63;;;9.40;99.90;;;;;;8378707;28;20051;-80
2023/09/28 05:49:01;;;;;;;15.07;10.38;;;9.40;99.90;;;;;;8396950;28;20028;-81
2023/09/28 05:53:01;;;;;;;12.75;9.55;;;9.50;99.90;;;;;;8376779;28;20024;-81
2023/09/28 05:57:03;;;;;;;13.38;9.80;;;9.50;99.90;;;;;;8377308;28;20115;-81
2023/09/28 06:01:07;;;;;;;12.35;8.77;;;9.50;99.90;;;;;;8400693;28;20031;-81
2023/09/28 06:05:09;;;;;;;13.82;8.80;;;9.60;99.90;;;;;;8377302;28;20051;-81
2023/09/28 06:09:10;;;;;;;17.38;9.43;;;9.50;99.90;;;;;;8397511;28;20582;-81
2023/09/28 06:13:10;;;;;;;12.55;8.85;;;9.60;99.90;;;;;;8398449;28;20024;-81
2023/09/28 06:17:11;;;;;;;14.10;10.00;;;9.80;99.90;;;;;;8377271;28;20035;-81
2023/09/28 06:21:12;;;;;;;14.07;9.77;;;10.00;99.90;;;;;;8397532;28;20385;-81
2023/09/28 06:25:12;;;;;;;12.40;9.35;;;10.20;99.90;;;;;;8377445;28;20024;-81
2023/09/28 06:29:13;;;;;;;14.05;9.68;;;10.50;99.90;;;;;;8374101;28;20028;-81
2023/09/28 06:33:13;;;;;;;13.35;9.63;;;10.70;99.90;;;;;;8379217;28;20025;-80
2023/09/28 06:37:14;;;;;;;14.60;9.18;;;11.10;99.90;;;;;;8378295;28;20024;-81
2023/09/28 06:41:15;;;;;;;13.00;8.73;;;11.10;99.90;;;;;;8375856;28;20035;-80
2023/09/28 06:45:16;;;;;;;13.13;9.02;;;11.30;99.90;;;;;;8376128;28;20024;-81
2023/09/28 06:49:16;;;;;;;11.73;8.50;;;11.40;99.90;;;;;;8378523;28;20036;-82
2023/09/28 06:53:17;;;;;;;11.93;8.80;;;11.60;99.90;;;;;;8385229;28;20032;-81
2023/09/28 06:57:19;;;;;;;11.20;7.80;;;11.70;99.90;;;;;;8385177;28;20028;-81
2023/09/28 07:01:20;;;;;;;9.52;7.32;;;11.80;99.90;;;;;;8385326;28;20017;-81
2023/09/28 07:05:22;;;;;;;11.73;7.70;;;12.20;99.90;;;;;;8374908;28;20021;-82
2023/09/28 07:09:23;;;;;;;10.85;7.85;;;12.20;99.90;;;;;;8381818;28;20131;-81
2023/09/28 07:13:24;;;;;;;11.57;8.20;;;12.10;99.90;;;;;;8403379;28;20017;-81
2023/09/28 07:17:24;;;;;;;10.57;7.93;;;12.10;99.90;;;;;;8402448;28;20028;-81
2023/09/28 07:21:25;;;;;;;12.55;7.95;;;12.20;99.90;;;;;;8389327;28;20079;-83
2023/09/28 07:25:25;;;;;;;11.13;8.35;;;12.50;99.90;;;;;;8395212;28;20111;-82
2023/09/28 07:29:26;;;;;;;15.27;8.88;;;12.80;99.90;;;;;;8396845;28;20050;-81
2023/09/28 07:33:27;;;;;;;11.30;8.18;;;13.40;99.90;;;;;;8376189;28;20553;-82
2023/09/28 07:37:28;;;;;;;11.02;7.80;;;13.70;99.90;;;;;;8378739;28;20020;-82
2023/09/28 07:41:29;;;;;;;10.55;8.68;;;14.30;99.90;;;;;;8397947;28;20404;-82
2023/09/28 07:45:30;;;;;;;11.65;7.80;;;14.60;99.90;;;;;;8380680;28;20115;-82
2023/09/28 07:49:31;;;;;;;10.27;7.45;;;14.90;99.90;;;;;;8383869;28;20051;-81
2023/09/28 07:53:32;;;;;;;10.52;7.10;;;15.30;99.90;;;;;;8383931;28;20048;-82
2023/09/28 07:57:33;;;;;;;8.05;6.72;;;15.90;99.90;;;;;;8383704;28;20054;-81
2023/09/28 08:01:38;;;;;;;7.38;6.18;;;16.40;99.90;;;;;;8381225;28;20032;-83
2023/09/28 08:05:38;;;;;;;8.27;6.55;;;17.10;99.90;;;;;;8401350;28;20020;-82
2023/09/28 08:09:39;;;;;;;9.10;6.00;;;17.70;99.90;;;;;;8382222;28;20070;-82
2023/09/28 08:13:39;;;;;;;8.43;6.00;;;18.10;99.90;;;;;;8387656;28;20039;-81
2023/09/28 08:17:41;;;;;;;8.00;5.30;;;18.60;99.90;;;;;;8382540;28;20066;-83
2023/09/28 08:21:42;;;;;;;9.27;6.05;;;18.40;99.90;;;;;;8385340;28;20082;-82
2023/09/28 08:25:42;;;;;;;7.38;5.60;;;18.20;99.90;;;;;;8381966;28;20089;-82
2023/09/28 08:29:43;;;;;;;7.63;6.05;;;17.70;99.90;;;;;;8401496;28;20707;-83
2023/09/28 08:33:44;;;;;;;8.25;6.22;;;17.80;99.90;;;;;;8403662;28;20025;-81
2023/09/28 08:37:44;;;;;;;7.80;5.50;;;17.90;99.90;;;;;;8382588;28;20021;-83
2023/09/28 08:41:51;;;;;;;8.70;4.82;;;18.00;99.90;;;;;;8377968;28;20056;-83
2023/09/28 08:45:52;;;;;;;5.97;4.10;;;18.20;99.90;;;;;;8380277;28;20389;-82
2023/09/28 08:49:56;;;;;;;5.88;4.22;;;18.50;99.90;;;;;;8378507;28;20408;-82
2023/09/28 08:53:59;;;;;;;6.82;3.63;;;18.60;99.90;;;;;;8379164;28;20024;-84
2023/09/28 08:58:01;;;;;;;6.03;4.05;;;18.70;99.90;;;;;;8382343;28;20048;-82
2023/09/28 09:02:03;;;;;;;5.20;3.72;;;18.90;99.90;;;;;;8399657;28;20086;-82
2023/09/28 09:06:07;;;;;;;4.68;3.47;;;18.90;99.90;;;;;;8382291;28;20073;-82
2023/09/28 09:10:12;;;;;;;6.88;4.13;;;19.00;99.90;;;;;;8378540;28;20035;-81
2023/09/28 09:14:13;;;;;;;5.90;3.70;;;19.40;99.90;;;;;;8379850;28;20047;-82
2023/09/28 09:18:18;;;;;;;5.00;3.63;;;19.60;99.90;;;;;;8381841;28;20111;-83
2023/09/28 09:22:27;;;;;;;4.80;3.63;;;19.90;99.90;;;;;;8382659;28;20020;-82
2023/09/28 09:26:37;;;;;;;7.95;3.70;;;20.40;99.90;;;;;;8381014;28;20045;-83
2023/09/28 09:30:38;;;;;;;6.43;3.53;;;21.30;99.90;;;;;;8381452;28;20434;-82
2023/09/28 09:34:39;;;;;;;5.40;3.58;;;21.90;99.90;;;;;;8384621;28;20078;-83
2023/09/28 09:38:43;;;;;;;5.13;3.60;;;22.20;99.90;;;;;;8406929;28;20026;-83
2023/09/28 09:42:44;;;;;;;7.10;3.20;;;22.70;99.90;;;;;;8399685;28;20078;-83
2023/09/28 09:46:49;;;;;;;3.88;3.00;;;23.20;99.90;;;;;;8381839;28;20040;-82
2023/09/28 09:50:50;;;;;;;5.97;3.58;;;23.30;99.90;;;;;;8380547;28;20033;-83
2023/09/28 09:54:51;;;;;;;4.55;3.20;;;23.60;99.90;;;;;;8400831;28;20138;-82
2023/09/28 09:58:55;;;;;;;4.57;3.20;;;23.80;99.90;;;;;;8381273;28;20031;-82
2023/09/28 10:02:58;;;;;;;5.10;3.60;;;23.90;99.90;;;;;;8399577;28;20020;-83
2023/09/28 10:07:01;;;;;;;5.85;3.58;;;24.10;99.90;;;;;;8381041;28;20047;-83
2023/09/28 10:11:04;;;;;;;4.45;3.20;;;25.10;99.90;;;;;;8380605;28;20088;-82
2023/09/28 10:15:05;;;;;;;4.65;3.25;;;26.00;99.90;;;;;;8398800;28;20040;-82
2023/09/28 10:19:08;;;;;;;5.63;3.30;;;26.70;99.90;;;;;;8399692;28;20024;-83
2023/09/28 10:23:16;;;;;;;4.72;3.53;;;27.30;99.90;;;;;;8398278;28;20480;-83
2023/09/28 10:27:17;;;;;;;5.55;3.38;;;26.70;99.90;;;;;;8398852;28;20015;-83
2023/09/28 10:31:18;;;;;;;5.38;3.70;;;26.30;99.90;;;;;;8379087;28;20025;-83
2023/09/28 10:35:27;;;;;;;4.68;3.20;;;26.30;99.90;;;;;;8378578;28;20024;-83
2023/09/28 10:39:31;;;;;;;4.93;2.93;;;27.30;99.90;;;;;;8372281;28;20078;-82
2023/09/28 10:43:40;;;;;;;4.20;2.88;;;27.20;99.90;;;;;;8397262;28;20013;-84
2023/09/28 10:47:41;;;;;;;4.55;3.10;;;27.50;99.90;;;;;;8379695;28;20412;-83
2023/09/28 10:51:42;;;;;;;4.68;3.40;;;27.50;99.90;;;;;;8398137;28;20039;-84
2023/09/28 10:55:43;;;;;;;4.78;3.30;;;27.30;99.90;;;;;;8379804;28;20025;-84
2023/09/28 10:59:43;;;;;;;4.53;2.90;;;27.00;99.90;;;;;;8381221;28;20039;-83
2023/09/28 11:03:46;;;;;;;3.67;2.80;;;26.10;99.90;;;;;;8376714;28;20033;-82
2023/09/28 11:07:48;;;;;;;5.32;3.10;;;25.10;99.90;;;;;;8379165;28;20095;-83
2023/09/28 11:11:49;;;;;;;3.65;2.72;;;25.50;99.90;;;;;;8375670;28;20503;-83
2023/09/28 11:15:50;;;;;;;5.72;3.38;;;25.20;99.90;;;;;;8369087;28;20031;-84
2023/09/28 11:19:51;;;;;;;3.40;2.55;;;24.90;99.90;;;;;;8374868;28;20013;-82
2023/09/28 11:23:52;;;;;;;4.13;3.00;;;25.40;99.90;;;;;;8376883;28;20028;-82
2023/09/28 11:27:53;;;;;;;4.40;2.90;;;26.10;99.90;;;;;;8373747;28;20051;-84
2023/09/28 11:31:54;;;;;;;4.32;3.13;;;28.50;99.90;;;;;;8371859;28;20028;-85
2023/09/28 11:35:54;;;;;;;4.03;2.63;;;30.90;99.60;;;;;;8393358;28;20030;-84
2023/09/28 11:39:55;;;;;;;3.95;2.25;;;31.60;96.20;;;;;;8382601;28;20024;-84
2023/09/28 11:43:56;;;;;;;3.75;2.60;;;32.20;93.10;;;;;;8397896;28;20472;-84
2023/09/28 11:47:57;;;;;;;5.07;2.15;;;32.80;88.40;;;;;;8376213;28;20028;-85
2023/09/28 11:51:58;;;;;;;2.58;1.75;;;33.40;79.50;;;;;;8394103;28;20031;-84
2023/09/28 11:56:01;;;;;;;2.92;2.35;;;33.40;71.60;;;;;;8411775;28;20032;-83
2023/09/28 12:00:03;;;;;;;4.82;2.97;;;33.60;72.70;;;;;;8379560;28;20029;-83
2023/09/28 12:04:04;;;;;;;3.28;2.40;;;33.80;76.70;;;;;;8403577;28;20021;-83
2023/09/28 12:08:06;;;;;;;4.40;2.55;;;33.50;77.20;;;;;;8384739;28;20051;-84
2023/09/28 12:12:06;;;;;;;4.80;2.80;;;34.70;74.10;;;;;;8403076;28;20016;-84
2023/09/28 12:16:07;;;;;;;4.68;2.88;;;34.80;69.90;;;;;;8382762;28;20370;-83
2023/09/28 12:20:14;;;;;;;3.88;2.70;;;35.20;67.70;;;;;;8384580;28;20024;-83
2023/09/28 12:24:15;;;;;;;3.72;2.50;;;33.90;72.50;;;;;;8402627;28;20017;-84
2023/09/28 12:28:16;;;;;;;4.20;2.28;;;34.50;71.50;;;;;;8384137;28;20017;-83
2023/09/28 12:32:17;;;;;;;3.90;2.22;;;33.90;68.20;;;;;;8384328;28;20024;-83
2023/09/28 12:36:17;;;;;;;2.83;2.28;;;33.80;70.00;;;;;;8402070;28;20046;-83
2023/09/28 12:40:18;;;;;;;2.90;2.13;;;34.60;62.60;;;;;;8385024;28;20027;-84
2023/09/28 12:44:22;;;;;;;3.47;2.20;;;35.40;62.50;;;;;;8402502;28;20058;-83
2023/09/28 12:48:22;;;;;;;3.63;2.53;;;35.00;60.10;;;;;;8379758;28;20040;-83
2023/09/28 12:52:23;;;;;;;2.80;1.65;;;33.20;66.50;;;;;;8383736;28;20110;-84
2023/09/28 12:56:23;;;;;;;3.47;1.85;;;34.50;60.80;;;;;;8401824;28;20074;-84
2023/09/28 13:00:25;;;;;;;5.43;1.50;;;35.10;55.10;;;;;;8383047;28;20502;-84
2023/09/28 13:04:26;;;;;;;1.55;1.40;;;35.60;52.50;;;;;;8376113;28;20036;-84
2023/09/28 13:08:26;;;;;;;2.20;1.75;;;36.30;52.70;;;;;;8383467;28;20016;-84
2023/09/28 13:12:28;;;;;;;3.28;2.03;;;36.60;55.00;;;;;;8380074;28;20068;-84
2023/09/28 13:16:29;;;;;;;2.80;1.90;;;36.10;55.20;;;;;;8400902;28;20407;-84
2023/09/28 13:20:30;;;;;;;3.35;2.03;;;36.90;52.80;;;;;;8379519;28;20021;-84
2023/09/28 13:24:31;;;;;;;2.25;1.80;;;37.20;52.80;;;;;;8403348;28;20016;-84
2023/09/28 13:28:31;;;;;;;4.75;1.73;;;37.60;49.80;;;;;;8401904;28;20021;-84
2023/09/28 13:32:32;;;;;;;1.90;1.60;;;38.00;48.00;;;;;;8383344;28;20458;-84
2023/09/28 13:36:33;;;;;;;3.08;2.05;;;38.50;47.50;;;;;;8382907;28;20016;-84
2023/09/28 13:40:34;;;;;;;2.05;1.63;;;38.30;49.60;;;;;;8400726;28;20490;-84
2023/09/28 13:44:35;;;;;;;2.50;1.63;;;37.30;48.70;;;;;;8379548;28;20066;-84
2023/09/28 13:48:36;;;;;;;1.55;1.33;;;37.00;49.90;;;;;;8399301;28;20442;-84
2023/09/28 13:52:37;;;;;;;3.15;1.45;;;36.60;47.90;;;;;;8399878;28;20036;-84
2023/09/28 13:56:38;;;;;;;1.73;1.20;;;35.70;47.90;;;;;;8378029;28;20564;-85
2023/09/28 14:00:42;;;;;;;2.08;1.38;;;36.30;50.40;;;;;;8405298;28;20028;-84
2023/09/28 14:04:44;;;;;;;2.03;1.20;;;36.30;45.60;;;;;;8384620;28;20035;-85
2023/09/28 14:08:45;;;;;;;11.90;1.98;;;36.10;47.10;;;;;;8399089;28;20028;-85
2023/09/28 14:12:47;;;;;;;2.85;1.15;;;35.60;48.60;;;;;;8377826;28;20504;-84
2023/09/28 14:16:47;;;;;;;1.48;1.17;;;35.30;46.00;;;;;;8381819;28;20063;-84
2023/09/28 14:20:49;;;;;;;2.05;1.08;;;35.50;46.40;;;;;;8404048;28;20074;-86
2023/09/28 14:24:49;;;;;;;1.98;1.40;;;35.70;48.90;;;;;;8381269;28;20484;-85
2023/09/28 14:28:50;;;;;;;2.78;1.30;;;34.80;45.30;;;;;;8399623;28;20032;-84
2023/09/28 14:32:51;;;;;;;2.15;1.10;;;33.70;50.60;;;;;;8389189;28;20025;-81
2023/09/28 14:36:51;;;;;;;1.33;1.05;;;33.90;51.60;;;;;;8375316;28;20085;-81
2023/09/28 14:40:52;;;;;;;1.30;1.00;;;32.30;51.30;;;;;;8373268;28;20992;-80
2023/09/28 14:44:52;;;;;;;1.50;1.00;;;31.20;52.50;;;;;;8378499;28;20021;-81
2023/09/28 14:48:53;;;;;;;2.05;1.05;;;30.00;61.70;;;;;;8378345;28;20040;-81
2023/09/28 14:52:54;;;;;;;1.48;1.10;;;28.40;61.10;;;;;;8363570;28;20683;-79
2023/09/28 14:56:54;;;;;;;1.80;1.02;;;27.90;69.00;;;;;;8367865;28;20029;-80
2023/09/28 15:00:55;;;;;;;1.08;0.90;;;27.00;75.90;;;;;;8376992;28;20028;-80
2023/09/28 15:04:55;;;;;;;1.80;1.17;;;26.30;75.60;;;;;;8403826;28;20108;-80
2023/09/28 15:08:56;;;;;;;1.60;1.10;;;25.60;78.30;;;;;;8375268;28;20024;-80
2023/09/28 15:12:56;;;;;;;2.78;1.25;;;24.90;78.20;;;;;;8370762;28;20538;-79
2023/09/28 15:16:58;;;;;;;1.88;1.08;;;24.40;81.70;;;;;;8390178;28;20401;-80
2023/09/28 15:20:59;;;;;;;1.77;1.00;;;24.10;89.00;;;;;;8370800;28;20533;-79
2023/09/28 15:25:00;;;;;;;5.10;3.30;;;23.70;92.60;;;;;;8368402;28;20025;-80
2023/09/28 15:29:00;;;;;;;4.13;1.70;;;23.40;92.10;;;;;;8382535;28;20024;-79
2023/09/28 15:33:01;;;;;;;2.25;1.60;;;23.20;92.60;;;;;;8368134;28;20024;-79
2023/09/28 15:37:02;;;;;;;2.95;1.40;;;23.30;97.50;;;;;;8367533;28;20028;-80
2023/09/28 15:41:35;;;;;;;1.98;1.50;;;23.00;98.20;;;;;;8368594;28;20031;-79
2023/09/28 15:45:36;;;;;;;2.30;1.27;;;22.40;98.80;;;;;;8376773;28;20377;-80
2023/09/28 15:49:37;;;;;;;4.88;1.50;;;21.90;99.90;;;;;;8371959;28;20029;-80
2023/09/28 15:53:37;;;;;;;2.08;1.33;;;21.60;99.90;;;;;;8363859;28;20036;-80
2023/09/28 15:57:38;;;;;;;5.97;1.50;;;21.40;99.90;;;;;;8365448;28;21539;-80
2023/09/28 16:01:41;;;;;;;2.25;1.30;;;21.70;99.90;;;;;;8374621;28;20028;-79
2023/09/28 16:05:41;;;;;;;2.63;1.70;;;21.80;99.90;;;;;;8379336;28;20028;-80
2023/09/28 16:09:42;;;;;;;3.25;1.73;;;22.10;99.90;;;;;;8379645;28;20060;-79
2023/09/28 16:13:42;;;;;;;5.95;1.77;;;21.80;99.90;;;;;;8396628;28;20043;-80
2023/09/28 16:17:43;;;;;;;3.22;1.70;;;21.50;99.90;;;;;;8372511;28;20029;-79
2023/09/28 16:21:43;;;;;;;5.68;1.73;;;21.10;99.90;;;;;;8388174;28;20038;-86
2023/09/28 16:25:44;;;;;;;2.05;1.50;;;20.70;99.90;;;;;;8417661;28;20079;-87
2023/09/28 16:29:44;;;;;;;4.15;1.85;;;20.50;99.90;;;;;;8387162;28;20032;-80
2023/09/28 16:33:45;;;;;;;3.28;1.60;;;20.30;99.90;;;;;;8378915;28;20052;-80
2023/09/28 16:37:46;;;;;;;3.25;1.60;;;20.10;99.90;;;;;;8381101;28;20036;-80
2023/09/28 16:41:47;;;;;;;2.30;1.52;;;19.60;99.90;;;;;;8411464;28;20035;-80
2023/09/28 16:45:48;;;;;;;2.97;1.73;;;19.40;99.90;;;;;;8380560;28;20457;-78
2023/09/28 16:49:48;;;;;;;2.70;1.40;;;19.10;99.90;;;;;;8403945;28;20025;-78
2023/09/28 16:53:49;;;;;;;4.55;1.65;;;18.90;99.90;;;;;;8382311;28;20058;-79
2023/09/28 16:57:50;;;;;;;3.33;1.73;;;18.60;99.90;;;;;;8374139;28;20423;-78
2023/09/28 17:01:51;;;;;;;3.63;1.73;;;18.30;99.90;;;;;;8376008;28;20024;-78
2023/09/28 17:05:51;;;;;;;4.35;1.50;;;18.20;99.90;;;;;;8400669;28;20033;-79
2023/09/28 17:09:52;;;;;;;4.07;1.77;;;17.90;99.90;;;;;;8404050;28;20505;-79
2023/09/28 17:13:56;;;;;;;3.42;1.55;;;17.50;99.90;;;;;;8394147;28;20036;-79
2023/09/28 17:17:57;;;;;;;1.85;1.30;;;17.20;99.90;;;;;;8374438;28;20373;-78
2023/09/28 17:21:57;;;;;;;4.95;1.85;;;16.90;99.90;;;;;;8393756;28;20060;-80
2023/09/28 17:25:58;;;;;;;3.60;1.77;;;16.70;99.90;;;;;;8373124;28;20055;-80
2023/09/28 17:29:58;;;;;;;2.38;1.70;;;16.60;99.90;;;;;;8365258;28;20090;-78
2023/09/28 17:33:59;;;;;;;2.38;1.40;;;16.40;99.90;;;;;;8362008;28;20020;-79
2023/09/28 17:38:00;;;;;;;2.20;1.50;;;16.40;99.90;;;;;;8370766;28;20817;-79
2023/09/28 17:42:00;;;;;;;2.15;1.50;;;16.20;99.90;;;;;;8365998;28;20024;-79
2023/09/28 17:46:02;;;;;;;2.60;1.48;;;16.10;99.90;;;;;;8367659;28;20489;-78
2023/09/28 17:50:04;;;;;;;2.15;1.63;;;16.10;99.90;;;;;;8402853;28;20099;-79
2023/09/28 17:54:05;;;;;;;3.85;1.55;;;15.90;99.90;;;;;;8370361;28;20059;-79
2023/09/28 17:58:06;;;;;;;2.22;1.55;;;15.70;99.90;;;;;;8396955;28;20058;-80
2023/09/28 18:02:09;;;;;;;3.30;2.13;;;15.50;99.90;;;;;;8393822;28;20103;-79
2023/09/28 18:06:09;;;;;;;2.47;1.83;;;15.30;99.90;;;;;;8371904;28;20028;-78
2023/09/28 18:10:10;;;;;;;2.88;1.83;;;15.30;99.90;;;;;;8374267;28;20091;-78
2023/09/28 18:14:11;;;;;;;2.70;1.80;;;15.20;99.90;;;;;;8403875;28;20036;-79
2023/09/28 18:18:11;;;;;;;6.85;2.03;;;15.00;99.90;;;;;;8394840;28;20481;-80
2023/09/28 18:22:12;;;;;;;4.05;1.80;;;14.80;99.90;;;;;;8374469;28;20036;-78
2023/09/28 18:26:12;;;;;;;4.68;1.98;;;14.50;99.90;;;;;;8394963;28;20039;-79
2023/09/28 18:30:13;;;;;;;4.38;2.17;;;14.30;99.90;;;;;;8390733;28;20036;-80
2023/09/28 18:34:14;;;;;;;2.97;1.60;;;14.20;99.90;;;;;;8373816;28;20031;-79
2023/09/28 18:38:16;;;;;;;4.63;2.47;;;14.10;99.90;;;;;;8391837;28;20085;-79
2023/09/28 18:42:17;;;;;;;5.60;2.30;;;14.00;99.90;;;;;;8373605;28;20391;-79
2023/09/28 18:46:18;;;;;;;3.58;2.15;;;13.90;99.90;;;;;;8393064;28;20024;-80
2023/09/28 18:50:19;;;;;;;9.23;2.50;;;13.90;99.90;;;;;;8364632;28;20027;-79
2023/09/28 18:54:22;;;;;;;3.33;2.10;;;13.80;99.90;;;;;;8373912;28;20455;-79
2023/09/28 18:58:22;;;;;;;3.70;2.53;;;13.60;99.90;;;;;;8369800;28;20025;-79
2023/09/28 19:02:23;;;;;;;9.38;4.30;;;13.30;99.90;;;;;;8368505;28;20074;-79
2023/09/28 19:06:23;;;;;;;10.95;7.97;;;13.30;99.90;;;;;;8363788;28;20025;-79
2023/09/28 19:10:24;;;;;;;8.77;6.53;;;13.20;99.90;;;;;;8360529;28;20070;-79
2023/09/28 19:14:24;;;;;;;8.15;4.97;;;13.10;99.90;;;;;;8375120;28;20119;-78
2023/09/28 19:18:25;;;;;;;4.88;4.00;;;12.80;99.90;;;;;;8364292;28;20575;-80
2023/09/28 19:22:26;;;;;;;5.57;3.15;;;12.70;99.90;;;;;;8364635;28;20416;-79
2023/09/28 19:26:30;;;;;;;4.10;2.88;;;12.50;99.90;;;;;;8387984;28;20016;-79
2023/09/28 19:30:31;;;;;;;4.07;2.90;;;12.40;99.90;;;;;;8379163;28;20016;-79
2023/09/28 19:34:32;;;;;;;3.80;2.78;;;12.40;99.90;;;;;;8382770;28;20496;-80
2023/09/28 19:38:33;;;;;;;4.75;3.20;;;12.40;99.90;;;;;;8365273;28;20017;-79
2023/09/28 19:42:33;;;;;;;3.28;2.97;;;12.20;99.90;;;;;;8363384;28;20048;-79
2023/09/28 19:46:34;;;;;;;6.20;3.03;;;12.10;99.90;;;;;;8372477;28;20073;-79
2023/09/28 19:50:39;;;;;;;7.45;4.60;;;11.90;99.90;;;;;;8356823;28;20021;-79
2023/09/28 19:54:39;;;;;;;5.80;3.20;;;11.90;99.90;;;;;;8377364;28;20519;-78
2023/09/28 19:58:40;;;;;;;6.97;3.80;;;11.90;99.90;;;;;;8390882;28;20036;-79
2023/09/28 20:02:40;;;;;;;5.85;4.22;;;11.90;99.90;;;;;;8374895;28;20074;-79
2023/09/28 20:06:41;;;;;;;5.13;4.15;;;11.90;99.90;;;;;;8394963;28;20025;-79
2023/09/28 20:10:42;;;;;;;5.95;4.55;;;12.00;99.90;;;;;;8375020;28;20114;-79
2023/09/28 20:14:42;;;;;;;13.50;11.02;;;11.90;99.90;;;;;;8394906;28;20047;-80
2023/09/28 20:18:43;;;;;;;6.78;5.50;;;11.80;99.90;;;;;;8368527;28;20063;-80
2023/09/28 20:22:44;;;;;;;4.05;2.65;;;11.80;99.90;;;;;;8385215;28;20032;-79
2023/09/28 20:26:44;;;;;;;3.92;3.30;;;11.70;99.90;;;;;;8375618;28;20039;-79
2023/09/28 20:30:45;;;;;;;9.20;6.20;;;11.70;99.90;;;;;;8373454;28;20028;-79
2023/09/28 20:34:46;;;;;;;5.90;4.63;;;11.70;99.90;;;;;;8383887;28;20681;-80
2023/09/28 20:38:46;;;;;;;5.40;3.80;;;11.60;99.90;;;;;;8386420;28;20017;-79
2023/09/28 20:42:47;;;;;;;3.83;3.10;;;11.60;99.90;;;;;;8392880;28;20041;-80
2023/09/28 20:46:48;;;;;;;4.65;3.47;;;11.50;99.90;;;;;;8372183;28;20577;-80
2023/09/28 20:50:49;;;;;;;3.22;2.78;;;11.50;99.90;;;;;;8379926;28;20051;-80
2023/09/28 20:54:49;;;;;;;5.38;3.53;;;11.40;99.90;;;;;;8377227;28;20083;-79
2023/09/28 20:58:50;;;;;;;4.43;3.33;;;11.20;99.90;;;;;;8403391;28;20021;-81